createdAt,value
2022-11-16T00:04:19.909Z,20.75
2022-11-16T00:09:24.128Z,20.74
2022-11-16T00:14:28.470Z,20.75
2022-11-16T00:19:31.432Z,20.76
2022-11-16T00:24:35.772Z,20.76
2022-11-16T00:29:38.532Z,20.79
2022-11-16T00:34:41.333Z,20.79
2022-11-16T00:39:45.475Z,20.83
2022-11-16T00:44:48.777Z,20.80
2022-11-16T00:49:51.598Z,20.82
2022-11-16T00:54:55.887Z,20.80
2022-11-16T00:59:59.944Z,20.82
2022-11-16T01:05:02.864Z,20.84
2022-11-16T01:10:08.425Z,20.82
2022-11-16T01:15:11.506Z,20.85
2022-11-16T01:20:15.512Z,20.85
2022-11-16T01:25:19.994Z,20.86
2022-11-16T01:30:22.899Z,20.85
2022-11-16T01:35:35.011Z,20.85
2022-11-16T01:40:39.712Z,20.84
2022-11-16T01:45:42.831Z,20.86
2022-11-16T01:50:48.204Z,20.85
2022-11-16T01:55:52.947Z,20.85
2022-11-16T02:01:03.351Z,20.84
2022-11-16T02:06:31.670Z,20.93
2022-11-16T02:12:30.544Z,20.95
2022-11-16T02:17:40.081Z,20.89
2022-11-16T02:22:58.935Z,20.88
2022-11-16T02:28:13.976Z,20.92
2022-11-16T02:33:19.201Z,20.88
2022-11-16T02:38:24.565Z,20.93
2022-11-16T02:43:30.445Z,20.89
2022-11-16T02:48:45.204Z,20.86
2022-11-16T02:53:58.038Z,20.95
2022-11-16T02:59:01.853Z,20.90
2022-11-16T03:04:10.058Z,20.90
2022-11-16T03:09:13.724Z,20.82
2022-11-16T03:14:19.480Z,20.85
2022-11-16T03:19:27.760Z,20.87
2022-11-16T03:24:31.488Z,20.86
2022-11-16T03:29:36.495Z,20.87
2022-11-16T03:34:46.738Z,20.83
2022-11-16T03:39:49.749Z,20.87
2022-11-16T03:44:52.638Z,20.85
2022-11-16T03:49:56.862Z,20.83
2022-11-16T03:55:00.666Z,20.88
2022-11-16T04:00:04.072Z,20.85
2022-11-16T04:05:35.307Z,20.87
2022-11-16T04:10:56.008Z,20.86
2022-11-16T04:16:16.413Z,20.84
2022-11-16T04:21:43.445Z,20.85
2022-11-16T04:27:06.031Z,20.85
2022-11-16T04:32:26.632Z,20.82
2022-11-16T04:37:48.619Z,20.80
2022-11-16T04:42:54.974Z,20.83
2022-11-16T04:47:58.376Z,20.82
2022-11-16T04:53:07.559Z,20.85
2022-11-16T04:58:18.955Z,20.82
2022-11-16T05:03:22.048Z,20.86
2022-11-16T05:08:26.522Z,20.85
2022-11-16T05:13:30.436Z,20.85
2022-11-16T05:18:34.012Z,20.86
2022-11-16T05:23:56.703Z,20.90
2022-11-16T05:29:03.785Z,20.83
2022-11-16T05:34:06.776Z,20.88
2022-11-16T05:39:12.027Z,20.88
2022-11-16T05:44:17.102Z,20.83
2022-11-16T05:49:20.996Z,20.86
2022-11-16T05:54:26.111Z,20.74
2022-11-16T05:59:29.975Z,20.68
2022-11-16T06:04:35.442Z,20.59
2022-11-16T06:09:39.651Z,20.54
2022-11-16T06:14:50.276Z,20.47
2022-11-16T06:19:53.137Z,20.50
2022-11-16T06:24:57.708Z,20.50
2022-11-16T06:30:01.790Z,20.50
2022-11-16T06:35:05.538Z,20.45
2022-11-16T06:40:11.669Z,20.47
2022-11-16T06:45:18.280Z,20.45
2022-11-16T06:50:26.545Z,20.37
2022-11-16T06:55:30.888Z,20.30
2022-11-16T07:00:33.809Z,20.18
2022-11-16T07:05:40.213Z,20.18
2022-11-16T07:10:48.144Z,20.14
2022-11-16T07:15:51.162Z,20.09
2022-11-16T07:20:54.270Z,20.07
2022-11-16T07:26:02.187Z,19.98
2022-11-16T07:31:14.658Z,19.98
2022-11-16T07:36:18.055Z,19.95
2022-11-16T07:41:22.475Z,19.90
2022-11-16T07:46:48.749Z,19.87
2022-11-16T07:51:52.904Z,19.84
2022-11-16T07:57:17.341Z,19.78
2022-11-16T08:02:20.372Z,19.76
2022-11-16T08:07:25.057Z,19.75
2022-11-16T08:12:32.734Z,19.63
2022-11-16T08:17:35.702Z,19.64
2022-11-16T08:22:40.761Z,19.56
2022-11-16T08:27:47.646Z,19.37
2022-11-16T08:32:52.592Z,17.42
2022-11-16T08:37:55.739Z,17.29
2022-11-16T08:43:03.018Z,18.08
2022-11-16T08:48:06.292Z,18.42
2022-11-16T08:53:11.701Z,18.64
2022-11-16T08:58:16.114Z,18.73
2022-11-16T09:03:19.073Z,18.82
2022-11-16T09:08:21.910Z,18.85
2022-11-16T09:13:26.038Z,18.89
2022-11-16T09:18:29.157Z,18.91
2022-11-16T09:23:32.010Z,18.95
2022-11-16T09:28:36.672Z,18.98
2022-11-16T09:33:39.679Z,18.98
2022-11-16T09:44:10.807Z,19.00
2022-11-16T09:49:17.718Z,18.96
2022-11-16T09:54:22.712Z,18.98
2022-11-16T09:59:28.748Z,18.98
2022-11-16T10:04:36.846Z,18.96
2022-11-16T10:09:39.631Z,18.95
2022-11-16T10:15:01.592Z,18.95
2022-11-16T10:20:13.742Z,18.94
2022-11-16T10:25:17.144Z,18.95
2022-11-16T10:30:21.783Z,18.96
2022-11-16T10:35:26.819Z,18.96
2022-11-16T10:40:31.278Z,18.97
2022-11-16T10:45:39.036Z,18.98
2022-11-16T10:50:44.127Z,19.01
2022-11-16T10:55:47.096Z,19.03
2022-11-16T11:00:52.724Z,19.04
2022-11-16T11:05:55.665Z,19.05
2022-11-16T11:11:01.740Z,19.03
2022-11-16T11:16:18.892Z,19.06
2022-11-16T11:21:22.852Z,19.05
2022-11-16T11:26:36.267Z,19.05
2022-11-16T11:31:43.333Z,19.08
2022-11-16T11:36:48.058Z,19.11
2022-11-16T11:42:06.500Z,19.11
2022-11-16T11:52:53.373Z,19.08
2022-11-16T11:57:56.173Z,19.10
2022-11-16T12:03:12.674Z,19.07
2022-11-16T12:08:22.840Z,19.07
2022-11-16T12:13:42.226Z,19.06
2022-11-16T12:18:53.998Z,19.05
2022-11-16T12:24:04.375Z,19.05
2022-11-16T12:29:16.685Z,19.04
2022-11-16T12:34:26.926Z,19.04
2022-11-16T12:39:32.456Z,19.07
2022-11-16T12:44:44.989Z,19.06
2022-11-16T12:50:09.679Z,19.03
2022-11-16T12:55:26.019Z,19.01
2022-11-16T13:00:29.750Z,18.96
2022-11-16T13:05:44.302Z,18.93
2022-11-16T13:10:47.755Z,18.91
2022-11-16T13:15:50.534Z,18.89
2022-11-16T13:20:56.997Z,18.88
2022-11-16T13:26:02.683Z,18.88
2022-11-16T13:31:07.215Z,18.88
2022-11-16T13:36:44.995Z,18.84
2022-11-16T13:41:48.090Z,18.82
2022-11-16T13:46:56.527Z,18.81
2022-11-16T13:52:17.339Z,18.80
2022-11-16T13:57:26.116Z,18.78
2022-11-16T14:02:30.617Z,18.75
2022-11-16T14:07:43.221Z,18.74
2022-11-16T14:12:54.967Z,18.73
2022-11-16T14:18:00.340Z,18.82
2022-11-16T14:23:11.347Z,18.79
2022-11-16T14:28:40.184Z,18.74
2022-11-16T14:33:42.956Z,18.72
2022-11-16T14:38:47.590Z,18.71
2022-11-16T14:43:51.444Z,18.69
2022-11-16T14:48:55.525Z,18.69
2022-11-16T14:54:03.767Z,18.68
2022-11-16T14:59:06.487Z,18.66
2022-11-16T15:04:10.234Z,17.97
2022-11-16T15:09:17.854Z,17.73
2022-11-16T15:14:22.099Z,18.05
2022-11-16T15:19:25.024Z,18.26
2022-11-16T15:24:31.289Z,18.46
2022-11-16T15:29:34.913Z,18.65
2022-11-16T15:34:38.713Z,18.69
2022-11-16T15:39:42.839Z,18.76
2022-11-16T15:44:45.631Z,18.89
2022-11-16T15:49:49.648Z,18.99
2022-11-16T15:55:05.351Z,19.07
2022-11-16T16:00:22.844Z,19.18
2022-11-16T16:05:34.198Z,19.26
2022-11-16T16:10:38.330Z,19.40
2022-11-16T16:15:41.098Z,19.47
2022-11-16T16:20:47.738Z,19.46
2022-11-16T16:25:51.831Z,19.56
2022-11-16T16:30:54.557Z,19.60
2022-11-16T16:35:57.395Z,19.64
2022-11-16T16:41:02.904Z,19.64
2022-11-16T16:46:06.076Z,19.70
2022-11-16T16:51:12.161Z,19.68
2022-11-16T16:56:19.655Z,19.72
2022-11-16T17:01:22.546Z,19.81
2022-11-16T17:06:25.620Z,19.86
2022-11-16T17:11:29.908Z,19.94
2022-11-16T17:16:34.572Z,19.93
2022-11-16T17:21:37.333Z,20.00
2022-11-16T17:26:41.535Z,20.10
2022-11-16T17:31:44.877Z,20.07
2022-11-16T17:36:47.780Z,20.11
2022-11-16T17:41:51.888Z,20.13
2022-11-16T17:46:54.740Z,20.12
2022-11-16T17:51:57.491Z,20.13
2022-11-16T17:57:01.761Z,20.15
2022-11-16T18:02:04.532Z,20.17
2022-11-16T18:07:07.365Z,20.16
2022-11-16T18:12:11.534Z,20.17
2022-11-16T18:17:14.369Z,20.19
2022-11-16T18:22:17.130Z,20.23
2022-11-16T18:27:21.334Z,20.24
2022-11-16T18:32:24.070Z,20.26
2022-11-16T18:37:26.864Z,20.28
2022-11-16T18:42:30.976Z,20.27
2022-11-16T18:47:33.789Z,20.31
2022-11-16T18:52:36.509Z,20.30
2022-11-16T18:57:40.720Z,20.30
2022-11-16T19:02:43.467Z,20.28
2022-11-16T19:07:46.314Z,20.35
2022-11-16T19:12:50.436Z,20.34
2022-11-16T19:18:19.328Z,20.36
2022-11-16T19:23:16.065Z,20.54
2022-11-16T19:28:20.190Z,20.87
2022-11-16T19:33:22.994Z,21.07
2022-11-16T19:38:25.775Z,21.08
2022-11-16T19:43:29.885Z,21.19
2022-11-16T19:48:33.049Z,21.20
2022-11-16T19:53:36.237Z,21.23
2022-11-16T19:58:40.735Z,21.27
2022-11-16T20:03:43.471Z,21.28
2022-11-16T20:08:48.251Z,21.31
2022-11-16T20:13:52.928Z,21.30
2022-11-16T20:18:55.746Z,21.33
2022-11-16T20:24:04.731Z,21.23
2022-11-16T20:29:12.399Z,21.18
2022-11-16T20:34:15.667Z,21.20
2022-11-16T20:39:19.201Z,21.32
2022-11-16T20:44:23.403Z,21.26
2022-11-16T20:49:26.142Z,21.54
2022-11-16T20:54:29.610Z,21.55
2022-11-16T20:59:34.114Z,21.56
2022-11-16T21:04:36.935Z,21.53
2022-11-16T21:09:53.612Z,21.49
2022-11-16T21:14:57.789Z,21.45
2022-11-16T21:20:25.835Z,21.37
2022-11-16T21:25:24.815Z,21.42
2022-11-16T21:30:29.149Z,21.36
2022-11-16T21:35:31.992Z,21.35
2022-11-16T21:40:34.769Z,21.33
2022-11-16T21:45:38.882Z,21.27
2022-11-16T21:50:41.898Z,21.31
2022-11-16T21:55:49.537Z,21.41
2022-11-16T22:00:56.275Z,21.48
2022-11-16T22:06:17.254Z,21.42
2022-11-16T22:11:22.109Z,21.47
2022-11-16T22:16:26.535Z,21.42
2022-11-16T22:21:29.387Z,21.39
2022-11-16T22:26:32.230Z,21.33
2022-11-16T22:31:36.338Z,21.48
2022-11-16T22:36:39.294Z,21.43
2022-11-16T22:41:42.119Z,21.40
2022-11-16T22:46:46.423Z,21.43
2022-11-16T22:51:49.389Z,21.45
2022-11-16T22:56:52.203Z,21.36
2022-11-16T23:01:56.652Z,21.39
2022-11-16T23:07:00.450Z,21.33
2022-11-16T23:12:20.927Z,21.28
2022-11-16T23:17:25.154Z,21.35
2022-11-16T23:22:47.671Z,21.36
2022-11-16T23:27:53.700Z,21.43
2022-11-16T23:32:58.004Z,21.33
2022-11-16T23:38:01.326Z,21.32
2022-11-16T23:43:21.779Z,21.30
2022-11-16T23:48:25.954Z,21.24
2022-11-16T23:53:28.772Z,21.29
2022-11-16T23:58:31.531Z,21.30
